Time;durP1;ratioP1;P1;durP2;ratioP2;P2;SDS_P1;SDS_P2;PMS_P1;PMS_P2;Temp;Humidity;BMP_temperature;BMP_pressure;BME280_temperature;BME280_humidity;BME280_pressure;Samples;Min_cycle;Max_cycle;Signal;HPM_P1;HPM_P2
2021/12/07 00:01:00;;;;;;;11.77;7.75;;;2.20;99.90;;;;;;5048467;28;20029;-77
2021/12/07 00:03:26;;;;;;;17.23;9.73;;;2.20;99.90;;;;;;5067350;28;20051;-77
2021/12/07 00:05:52;;;;;;;15.43;7.85;;;2.20;99.90;;;;;;5066281;28;20090;-77
2021/12/07 00:08:18;;;;;;;11.45;6.22;;;2.20;99.90;;;;;;5053188;28;20408;-77
2021/12/07 00:10:44;;;;;;;16.77;9.55;;;2.20;99.90;;;;;;5063207;28;20040;-77
2021/12/07 00:13:11;;;;;;;12.27;7.95;;;2.20;99.90;;;;;;5068822;28;20051;-77
2021/12/07 00:15:39;;;;;;;14.23;8.35;;;2.10;99.90;;;;;;5045965;28;20387;-77
2021/12/07 00:18:05;;;;;;;14.60;9.13;;;2.00;99.90;;;;;;5053145;28;20082;-76
2021/12/07 00:20:32;;;;;;;10.07;6.38;;;2.00;99.90;;;;;;5062854;28;20037;-77
2021/12/07 00:23:02;;;;;;;11.90;7.47;;;2.00;99.90;;;;;;5039920;28;20040;-77
2021/12/07 00:25:28;;;;;;;11.40;6.57;;;1.90;99.90;;;;;;5039353;28;20036;-77
2021/12/07 00:27:53;;;;;;;11.43;6.38;;;1.90;99.90;;;;;;5065642;28;20045;-77
2021/12/07 00:30:20;;;;;;;15.30;9.23;;;1.90;99.90;;;;;;5051927;28;20255;-77
2021/12/07 00:33:06;;;;;;;10.63;7.25;;;1.80;99.90;;;;;;5057875;28;20109;-77
2021/12/07 00:35:34;;;;;;;7.82;4.88;;;1.80;99.90;;;;;;5068834;28;20048;-76
2021/12/07 00:38:08;;;;;;;12.15;6.82;;;1.70;99.90;;;;;;5069422;28;20408;-77
2021/12/07 00:40:34;;;;;;;8.32;5.13;;;1.70;99.90;;;;;;5038548;28;20063;-76
2021/12/07 00:42:59;;;;;;;14.02;7.50;;;1.60;99.90;;;;;;5063209;28;20041;-76
2021/12/07 00:45:25;;;;;;;11.57;7.40;;;1.60;99.90;;;;;;5068419;28;20040;-76
2021/12/07 00:47:53;;;;;;;9.77;6.10;;;1.60;99.90;;;;;;5055192;28;20041;-76
2021/12/07 00:50:22;;;;;;;7.25;5.50;;;1.50;99.90;;;;;;5068014;28;20518;-77
2021/12/07 00:52:49;;;;;;;7.72;5.18;;;1.50;99.90;;;;;;5068977;28;20098;-76
2021/12/07 00:55:19;;;;;;;11.77;7.65;;;1.50;99.90;;;;;;5069090;28;20052;-76
2021/12/07 00:57:45;;;;;;;6.30;4.47;;;1.40;99.90;;;;;;5049213;28;20398;-76
2021/12/07 01:00:15;;;;;;;3.92;3.13;;;1.40;99.90;;;;;;5069033;28;20379;-76
2021/12/07 01:02:41;;;;;;;12.30;6.90;;;1.40;99.90;;;;;;5048051;28;20117;-76
2021/12/07 01:05:15;;;;;;;7.75;4.20;;;1.30;99.90;;;;;;5068909;28;20054;-76
2021/12/07 01:26:37;;;;;;;8.85;6.50;;;1.30;99.90;;;;;;5063277;28;20048;-77
2021/12/07 01:29:03;;;;;;;8.05;4.05;;;1.30;99.90;;;;;;5065138;28;20091;-77
2021/12/07 01:31:36;;;;;;;11.98;6.05;;;1.30;99.90;;;;;;5054649;28;20054;-77
2021/12/07 02:00:41;;;;;;;10.52;6.55;;;1.10;99.90;;;;;;5071677;28;20053;-76
2021/12/07 02:03:07;;;;;;;11.18;5.50;;;1.10;99.90;;;;;;5069953;28;20068;-77
2021/12/07 02:05:33;;;;;;;5.35;3.40;;;1.10;99.90;;;;;;5071512;28;20145;-77
2021/12/07 02:07:59;;;;;;;7.55;5.18;;;1.10;99.90;;;;;;5060956;28;20464;-77
2021/12/07 02:10:28;;;;;;;5.10;4.28;;;1.10;99.90;;;;;;5065069;28;20137;-77
2021/12/07 02:13:01;;;;;;;7.85;5.22;;;1.20;99.90;;;;;;5071875;28;20048;-77
2021/12/07 02:15:29;;;;;;;12.35;7.22;;;1.20;99.90;;;;;;5071139;28;20056;-76
2021/12/07 02:17:55;;;;;;;10.60;6.28;;;1.20;99.90;;;;;;5041788;28;20052;-77
2021/12/07 02:20:25;;;;;;;8.57;6.20;;;1.20;99.90;;;;;;5050053;28;20044;-77
2021/12/07 02:22:51;;;;;;;3.83;2.72;;;1.30;99.90;;;;;;5051606;28;20105;-77
2021/12/07 02:25:18;;;;;;;8.30;5.05;;;1.30;99.90;;;;;;5056123;28;20514;-77
2021/12/07 02:27:46;;;;;;;10.15;6.20;;;1.30;99.90;;;;;;5044696;28;20420;-77
2021/12/07 02:30:15;;;;;;;1.88;1.65;;;1.30;99.90;;;;;;5071237;28;20151;-77
2021/12/07 02:32:42;;;;;;;5.53;4.30;;;1.40;99.90;;;;;;5043486;28;20040;-77
2021/12/07 02:35:11;;;;;;;1.60;1.50;;;1.40;99.90;;;;;;5039145;28;20539;-77
2021/12/07 02:37:36;;;;;;;3.65;2.97;;;1.40;99.90;;;;;;5070905;28;20051;-77
2021/12/07 02:40:05;;;;;;;7.60;4.70;;;1.40;99.90;;;;;;5054618;28;20048;-77
2021/12/07 02:42:31;;;;;;;2.10;1.95;;;1.40;99.90;;;;;;5071130;28;20039;-77
2021/12/07 02:44:56;;;;;;;4.10;3.67;;;1.50;99.90;;;;;;5047071;28;20036;-77
2021/12/07 02:47:22;;;;;;;4.70;2.72;;;1.50;99.90;;;;;;5058605;28;20123;-77
2021/12/07 02:49:48;;;;;;;3.17;2.30;;;1.50;99.90;;;;;;5054765;28;20159;-77
2021/12/07 02:52:15;;;;;;;2.17;1.58;;;1.50;99.90;;;;;;5071262;28;20040;-77
2021/12/07 02:54:49;;;;;;;2.63;2.17;;;1.60;99.90;;;;;;5037759;28;20045;-77
2021/12/07 02:57:18;;;;;;;7.75;3.97;;;1.50;99.90;;;;;;5070416;28;20051;-77
2021/12/07 02:59:49;;;;;;;8.30;4.93;;;1.50;99.90;;;;;;5051378;28;20425;-77
2021/12/07 03:02:16;;;;;;;6.78;4.47;;;1.50;99.90;;;;;;5052990;28;20037;-77
2021/12/07 03:04:57;;;;;;;3.47;2.88;;;1.50;99.90;;;;;;5081392;28;20041;-77
2021/12/07 03:08:18;;;;;;;3.60;2.17;;;1.40;99.90;;;;;;5063162;28;20044;-77
2021/12/07 03:26:42;;;;;;;2.83;2.40;;;1.10;99.90;;;;;;5061610;28;20048;-77
2021/12/07 03:29:07;;;;;;;11.05;5.43;;;1.10;99.90;;;;;;5051039;28;20188;-77
2021/12/07 03:31:34;;;;;;;2.75;2.25;;;1.00;99.90;;;;;;5070375;28;20037;-77
2021/12/07 03:34:02;;;;;;;3.58;2.60;;;1.10;99.90;;;;;;5053458;28;20094;-77
2021/12/07 03:36:29;;;;;;;1.05;1.05;;;1.10;99.90;;;;;;5049287;28;20409;-77
2021/12/07 03:38:55;;;;;;;2.55;2.05;;;1.00;99.90;;;;;;5051337;28;20396;-77
2021/12/07 03:41:22;;;;;;;3.10;2.80;;;1.00;99.90;;;;;;5058850;28;20068;-78
2021/12/07 03:43:49;;;;;;;4.03;2.67;;;1.00;99.90;;;;;;5103293;28;20044;-77
2021/12/07 03:46:14;;;;;;;3.85;3.03;;;1.00;99.90;;;;;;5062390;28;20040;-77
2021/12/07 03:48:41;;;;;;;6.20;3.92;;;1.00;99.90;;;;;;5086995;28;20043;-77
2021/12/07 03:51:08;;;;;;;3.90;2.35;;;1.00;99.90;;;;;;5053570;28;20382;-77
2021/12/07 03:53:35;;;;;;;5.70;4.20;;;1.00;99.90;;;;;;5052577;28;20037;-78
2021/12/07 03:56:03;;;;;;;5.47;3.75;;;1.00;99.90;;;;;;5061924;28;20493;-77
2021/12/07 03:58:29;;;;;;;2.10;1.92;;;1.00;99.90;;;;;;5070161;28;20037;-77
2021/12/07 04:00:55;;;;;;;1.08;1.08;;;0.90;99.90;;;;;;5067104;28;20102;-77
2021/12/07 04:03:20;;;;;;;3.30;2.63;;;1.00;99.90;;;;;;5062614;28;20063;-77
2021/12/07 04:05:50;;;;;;;5.90;3.67;;;1.00;99.90;;;;;;5052744;28;20032;-77
2021/12/07 04:08:20;;;;;;;2.45;1.60;;;1.00;99.90;;;;;;5052669;28;20048;-77
2021/12/07 04:10:46;;;;;;;1.58;1.48;;;1.00;99.90;;;;;;5031406;28;20055;-77
2021/12/07 04:13:12;;;;;;;1.90;1.75;;;1.00;99.90;;;;;;5069450;28;20044;-77
2021/12/07 04:15:38;;;;;;;2.55;1.65;;;1.00;99.90;;;;;;5069137;28;20084;-77
2021/12/07 04:18:04;;;;;;;2.60;2.35;;;1.00;99.90;;;;;;5069439;28;20828;-77
2021/12/07 04:20:30;;;;;;;0.60;0.60;;;1.00;99.90;;;;;;5072131;28;20415;-77
2021/12/07 04:22:56;;;;;;;0.82;0.82;;;1.10;99.90;;;;;;5040736;28;20036;-77
2021/12/07 04:25:25;;;;;;;0.28;0.28;;;1.10;99.90;;;;;;5035491;28;20033;-77
2021/12/07 04:27:55;;;;;;;3.45;2.42;;;1.10;99.90;;;;;;5052985;28;20047;-77
2021/12/07 04:30:24;;;;;;;1.33;1.27;;;1.00;99.90;;;;;;5077983;28;20084;-77
2021/12/07 04:32:50;;;;;;;8.10;3.20;;;1.10;99.90;;;;;;5069143;28;20049;-78
2021/12/07 04:35:17;;;;;;;1.65;1.20;;;1.10;99.90;;;;;;5069018;28;20121;-78
2021/12/07 04:37:42;;;;;;;1.52;0.90;;;1.10;99.90;;;;;;5069252;28;20555;-78
2021/12/07 04:40:12;;;;;;;1.45;1.35;;;1.10;99.90;;;;;;5042542;28;20068;-77
2021/12/07 04:42:39;;;;;;;0.40;0.40;;;1.20;99.90;;;;;;5052556;28;20049;-77
2021/12/07 04:45:09;;;;;;;2.00;1.85;;;1.20;99.90;;;;;;5069484;28;20040;-78
2021/12/07 04:58:01;;;;;;;0.30;0.30;;;1.20;99.90;;;;;;5068596;28;20045;-78
2021/12/07 05:00:29;;;;;;;2.88;2.20;;;1.10;99.90;;;;;;5046305;28;20507;-78
2021/12/07 05:02:59;;;;;;;1.00;0.75;;;1.10;99.90;;;;;;5065569;28;20037;-78
2021/12/07 05:05:30;;;;;;;0.95;0.95;;;1.10;99.90;;;;;;5068683;28;20098;-78
2021/12/07 05:07:59;;;;;;;1.30;1.20;;;1.10;99.90;;;;;;5041353;28;20032;-78
2021/12/07 05:10:30;;;;;;;1.02;0.93;;;1.10;99.90;;;;;;5043973;28;20041;-78
2021/12/07 05:40:03;;;;;;;0.95;0.95;;;0.90;99.90;;;;;;5056842;28;20052;-77
2021/12/07 05:42:29;;;;;;;1.33;1.15;;;1.00;99.90;;;;;;5052149;28;20404;-78
2021/12/07 05:44:55;;;;;;;7.15;1.95;;;1.00;99.90;;;;;;5051678;28;20044;-77
2021/12/07 05:47:21;;;;;;;0.98;0.85;;;1.00;99.90;;;;;;5046807;28;20036;-77
2021/12/07 05:49:47;;;;;;;0.30;0.30;;;1.10;99.90;;;;;;5068556;28;20413;-77
2021/12/07 05:52:13;;;;;;;0.30;0.30;;;1.00;99.90;;;;;;5068449;28;20040;-77
2021/12/07 05:54:38;;;;;;;0.35;0.35;;;1.00;99.90;;;;;;5068297;28;20052;-78
2021/12/07 05:57:05;;;;;;;0.75;0.75;;;1.00;99.90;;;;;;5064961;28;20067;-77
2021/12/07 05:59:31;;;;;;;0.22;0.22;;;0.90;99.90;;;;;;5085285;28;20511;-77
2021/12/07 06:01:57;;;;;;;0.63;0.63;;;1.00;99.90;;;;;;5064713;28;20439;-77
2021/12/07 06:04:23;;;;;;;0.30;0.30;;;0.90;99.90;;;;;;5072226;28;20123;-77
2021/12/07 06:06:49;;;;;;;0.30;0.30;;;0.90;99.90;;;;;;5062276;28;20086;-77
2021/12/07 06:09:15;;;;;;;1.13;1.13;;;0.90;99.90;;;;;;5059870;28;20053;-78
2021/12/07 06:11:42;;;;;;;0.90;0.90;;;0.90;99.90;;;;;;5089060;28;20123;-77
2021/12/07 06:14:11;;;;;;;0.30;0.30;;;0.80;99.90;;;;;;5058927;28;20045;-77
2021/12/07 06:16:37;;;;;;;0.30;0.30;;;0.80;99.90;;;;;;5070978;28;20298;-77
2021/12/07 06:19:03;;;;;;;0.20;0.20;;;0.80;99.90;;;;;;5071201;28;20484;-78
2021/12/07 06:21:29;;;;;;;0.28;0.28;;;0.80;99.90;;;;;;5042462;28;20463;-77
2021/12/07 06:23:55;;;;;;;0.30;0.30;;;0.90;99.90;;;;;;5064980;28;20071;-77
2021/12/07 06:26:21;;;;;;;0.30;0.30;;;0.90;99.90;;;;;;5043123;28;20040;-77
2021/12/07 06:28:47;;;;;;;0.80;0.50;;;1.00;99.90;;;;;;5042850;28;20127;-77
2021/12/07 06:31:13;;;;;;;0.80;0.80;;;0.90;99.90;;;;;;5052583;28;20040;-77
2021/12/07 06:33:39;;;;;;;0.55;0.55;;;0.90;99.90;;;;;;5054850;28;20075;-77
2021/12/07 06:36:05;;;;;;;0.73;0.73;;;0.80;99.90;;;;;;5070823;28;20097;-77
2021/12/07 06:38:33;;;;;;;0.57;0.57;;;0.80;99.90;;;;;;5071545;28;20534;-77
2021/12/07 06:41:03;;;;;;;0.30;0.30;;;0.70;99.90;;;;;;5060427;28;20041;-77
2021/12/07 06:43:29;;;;;;;1.55;1.23;;;0.80;99.90;;;;;;5057566;28;20123;-77
2021/12/07 06:45:55;;;;;;;1.23;1.13;;;0.80;99.90;;;;;;5071091;28;20119;-77
2021/12/07 06:48:21;;;;;;;0.80;0.80;;;0.80;99.90;;;;;;5070983;28;20056;-77
2021/12/07 06:50:48;;;;;;;14.00;1.98;;;0.80;99.90;;;;;;5072420;28;20188;-77
2021/12/07 06:53:15;;;;;;;5.20;2.92;;;0.80;99.90;;;;;;5064304;28;20519;-78
2021/12/07 06:55:40;;;;;;;1.55;1.45;;;0.80;99.90;;;;;;5041926;28;20115;-77
2021/12/07 06:58:06;;;;;;;2.85;1.85;;;0.80;99.90;;;;;;5067784;28;20048;-77
2021/12/07 07:00:33;;;;;;;1.40;1.05;;;0.80;99.90;;;;;;5047371;28;20044;-77
2021/12/07 07:02:59;;;;;;;0.75;0.75;;;0.80;99.90;;;;;;5067278;28;20044;-77
2021/12/07 07:05:25;;;;;;;3.40;1.88;;;0.90;99.90;;;;;;5070831;28;20225;-77
2021/12/07 07:07:51;;;;;;;1.65;1.55;;;0.90;99.90;;;;;;5067013;28;20492;-77
2021/12/07 07:10:19;;;;;;;0.50;0.50;;;0.90;99.90;;;;;;5061272;28;20047;-77
2021/12/07 07:12:46;;;;;;;1.45;1.33;;;0.90;99.90;;;;;;5053190;28;20412;-77
2021/12/07 07:15:13;;;;;;;0.93;0.93;;;0.90;99.90;;;;;;5087399;28;20123;-77
2021/12/07 07:17:39;;;;;;;1.10;1.00;;;0.90;99.90;;;;;;5047282;28;20465;-77
2021/12/07 07:20:07;;;;;;;13.07;1.83;;;1.00;99.90;;;;;;5069338;28;20393;-77
2021/12/07 07:22:34;;;;;;;0.88;0.88;;;1.00;99.90;;;;;;5054630;28;20050;-78
2021/12/07 07:25:00;;;;;;;1.27;1.05;;;1.00;99.90;;;;;;5059418;28;20041;-77
2021/12/07 07:27:26;;;;;;;1.23;1.13;;;1.00;99.90;;;;;;5067362;28;20041;-77
2021/12/07 07:29:52;;;;;;;0.63;0.63;;;1.10;99.90;;;;;;5046894;28;20413;-77
2021/12/07 07:32:17;;;;;;;1.77;1.60;;;1.10;99.90;;;;;;5054998;28;20059;-77
2021/12/07 07:34:43;;;;;;;1.08;1.05;;;1.10;99.90;;;;;;5053804;28;20045;-77
2021/12/07 07:37:09;;;;;;;1.92;1.15;;;1.10;99.90;;;;;;5052171;28;20052;-77
2021/12/07 07:39:35;;;;;;;0.82;0.50;;;1.10;99.90;;;;;;5070420;28;20097;-77
2021/12/07 07:42:01;;;;;;;0.40;0.40;;;1.10;99.90;;;;;;5053680;28;20044;-77
2021/12/07 07:44:27;;;;;;;0.40;0.40;;;1.20;99.90;;;;;;5061261;28;20032;-78
2021/12/07 07:46:52;;;;;;;0.80;0.80;;;1.20;99.90;;;;;;5043614;28;20044;-77
2021/12/07 07:49:18;;;;;;;0.85;0.85;;;1.20;99.90;;;;;;5043617;28;20075;-77
2021/12/07 07:51:44;;;;;;;1.27;1.27;;;1.20;99.90;;;;;;5054242;28;20471;-77
2021/12/07 07:54:10;;;;;;;1.02;1.02;;;1.20;99.90;;;;;;5073084;28;20046;-77
2021/12/07 07:56:36;;;;;;;2.38;1.73;;;1.30;99.90;;;;;;5080409;28;20048;-77
2021/12/07 07:59:03;;;;;;;0.60;0.60;;;1.30;99.90;;;;;;5061069;28;20381;-77
2021/12/07 08:01:31;;;;;;;2.42;1.85;;;1.30;99.90;;;;;;5045771;28;20052;-77
2021/12/07 08:04:00;;;;;;;5.40;1.63;;;1.40;99.90;;;;;;5042284;28;20049;-77
2021/12/07 08:06:26;;;;;;;3.03;2.03;;;1.50;99.90;;;;;;5065842;28;20037;-77
2021/12/07 08:08:52;;;;;;;1.75;1.35;;;1.50;99.90;;;;;;5064596;28;20044;-77
2021/12/07 08:11:17;;;;;;;6.10;3.15;;;1.50;99.90;;;;;;5047492;28;20036;-77
2021/12/07 08:13:43;;;;;;;1.27;0.73;;;1.60;99.90;;;;;;5072504;28;20037;-78
2021/12/07 08:16:15;;;;;;;2.80;1.85;;;1.70;99.90;;;;;;5086432;28;20044;-77
2021/12/07 08:18:49;;;;;;;0.30;0.30;;;1.90;99.90;;;;;;5041029;28;20521;-77
2021/12/07 08:21:16;;;;;;;1.85;1.65;;;2.10;99.90;;;;;;5036162;28;20106;-78
2021/12/07 08:23:42;;;;;;;0.30;0.30;;;2.30;99.90;;;;;;5025381;28;20033;-77
2021/12/07 08:26:11;;;;;;;3.33;2.08;;;2.40;99.90;;;;;;5032207;28;20041;-77
2021/12/07 08:28:37;;;;;;;2.45;1.25;;;2.40;99.90;;;;;;5032287;28;20417;-77
2021/12/07 08:31:04;;;;;;;1.52;1.42;;;2.30;99.90;;;;;;5049349;28;20037;-77
2021/12/07 08:33:30;;;;;;;1.35;1.15;;;2.40;99.90;;;;;;5037342;28;20454;-77
2021/12/07 08:35:56;;;;;;;5.88;2.33;;;2.60;99.90;;;;;;5056591;28;20408;-77
2021/12/07 08:38:23;;;;;;;13.57;2.65;;;2.70;99.90;;;;;;5040051;28;20045;-77
2021/12/07 08:40:53;;;;;;;13.00;3.55;;;2.90;99.90;;;;;;5033673;28;20049;-77
2021/12/07 08:43:30;;;;;;;2.25;1.77;;;3.00;99.90;;;;;;5032957;28;20583;-77
2021/12/07 08:45:59;;;;;;;2.63;1.40;;;3.20;99.90;;;;;;5025307;28;20045;-77
2021/12/07 08:48:26;;;;;;;12.00;2.35;;;3.30;99.90;;;;;;5076011;28;20044;-77
2021/12/07 08:50:52;;;;;;;1.73;1.63;;;3.40;99.90;;;;;;5026435;28;20052;-77
2021/12/07 08:53:21;;;;;;;7.65;1.58;;;3.60;99.90;;;;;;5043054;28;20124;-77
2021/12/07 09:01:21;;;;;;;0.82;0.82;;;4.10;99.90;;;;;;5045408;28;20124;-77
2021/12/07 09:03:49;;;;;;;4.07;1.83;;;4.20;99.90;;;;;;5072414;28;20120;-77
2021/12/07 09:06:15;;;;;;;1.80;1.15;;;4.30;99.90;;;;;;5065121;28;20055;-76
2021/12/07 09:08:42;;;;;;;0.77;0.75;;;4.30;99.90;;;;;;5065052;28;20060;-76
2021/12/07 09:11:09;;;;;;;4.30;2.50;;;4.30;99.90;;;;;;5057699;28;20576;-76
2021/12/07 09:13:35;;;;;;;1.85;1.55;;;4.40;99.90;;;;;;5063749;28;20116;-76
2021/12/07 09:16:02;;;;;;;1.17;1.05;;;4.50;99.90;;;;;;5048761;28;20036;-76
2021/12/07 09:18:28;;;;;;;2.38;1.33;;;4.60;99.90;;;;;;5068613;28;20037;-76
2021/12/07 09:20:55;;;;;;;3.65;1.35;;;4.60;99.90;;;;;;5056933;28;20517;-76
2021/12/07 09:23:22;;;;;;;5.10;2.10;;;4.60;99.90;;;;;;5058988;28;20064;-76
2021/12/07 09:25:48;;;;;;;7.93;2.30;;;4.70;99.90;;;;;;5038413;28;20127;-76
2021/12/07 09:28:14;;;;;;;1.23;1.13;;;4.60;99.90;;;;;;5059489;28;20094;-77
2021/12/07 09:30:40;;;;;;;2.35;1.30;;;4.60;99.90;;;;;;5039023;28;20454;-76
2021/12/07 09:33:06;;;;;;;6.68;2.83;;;4.70;99.90;;;;;;5085188;28;20055;-76
2021/12/07 09:35:33;;;;;;;1.98;1.25;;;4.70;99.90;;;;;;5085891;28;20040;-76
2021/12/07 09:38:00;;;;;;;0.45;0.32;;;4.70;99.90;;;;;;5072740;28;20409;-76
2021/12/07 09:40:28;;;;;;;4.63;1.98;;;4.70;99.90;;;;;;5042379;28;20131;-76
2021/12/07 09:42:56;;;;;;;2.42;1.33;;;4.70;99.90;;;;;;5046715;28;20493;-76
2021/12/07 09:45:25;;;;;;;6.45;1.27;;;4.70;99.90;;;;;;5055630;28;20428;-76
2021/12/07 09:47:53;;;;;;;24.90;1.15;;;4.80;99.90;;;;;;5072203;28;20044;-76
2021/12/07 09:50:21;;;;;;;2.92;1.83;;;4.80;99.90;;;;;;5032995;28;20037;-76
2021/12/07 09:52:48;;;;;;;5.78;1.83;;;4.70;99.90;;;;;;5034860;28;20053;-76
2021/12/07 09:55:15;;;;;;;9.95;1.90;;;4.70;99.90;;;;;;5056915;28;20046;-76
2021/12/07 09:57:41;;;;;;;13.88;2.38;;;4.80;99.90;;;;;;5050577;28;20489;-76
2021/12/07 10:00:09;;;;;;;2.83;1.85;;;4.80;99.90;;;;;;5040015;28;20045;-76
2021/12/07 10:02:35;;;;;;;2.92;1.90;;;4.80;99.90;;;;;;5048063;28;20507;-77
2021/12/07 10:05:01;;;;;;;2.50;1.45;;;4.90;99.90;;;;;;5072208;28;20079;-76
2021/12/07 10:07:27;;;;;;;5.80;1.80;;;4.90;99.90;;;;;;5068052;28;20489;-76
2021/12/07 10:09:53;;;;;;;1.35;1.25;;;5.00;99.90;;;;;;5058658;28;20086;-75
2021/12/07 10:12:21;;;;;;;9.90;1.58;;;5.00;99.90;;;;;;5078145;28;20072;-75
2021/12/07 10:14:47;;;;;;;18.30;2.72;;;5.10;99.90;;;;;;5071680;28;20048;-75
2021/12/07 10:17:19;;;;;;;2.63;1.67;;;5.20;99.90;;;;;;5071650;28;20397;-75
2021/12/07 10:19:45;;;;;;;4.18;1.75;;;5.30;99.90;;;;;;5062044;28;20041;-76
2021/12/07 10:22:19;;;;;;;1.98;1.52;;;5.50;99.90;;;;;;5031033;28;20481;-76
2021/12/07 10:24:55;;;;;;;7.88;1.40;;;5.60;99.90;;;;;;5079750;28;20043;-75
2021/12/07 10:27:34;;;;;;;4.07;1.38;;;5.70;99.90;;;;;;5067710;28;20036;-75
2021/12/07 10:30:03;;;;;;;6.65;3.05;;;5.80;99.90;;;;;;5057406;28;20470;-75
2021/12/07 10:32:29;;;;;;;2.92;0.85;;;5.80;99.90;;;;;;5071382;28;20044;-76
2021/12/07 10:34:55;;;;;;;3.30;1.65;;;5.80;99.90;;;;;;5047731;28;20409;-75
2021/12/07 10:37:21;;;;;;;1.02;1.00;;;5.90;99.90;;;;;;5046296;28;20044;-76
2021/12/07 10:39:55;;;;;;;1.30;1.23;;;5.90;99.90;;;;;;5054792;28;20428;-75
2021/12/07 10:42:30;;;;;;;3.00;1.55;;;5.90;99.90;;;;;;5071662;28;20459;-75
2021/12/07 10:45:06;;;;;;;1.23;0.93;;;5.90;99.90;;;;;;5071612;28;20382;-75
2021/12/07 10:47:31;;;;;;;4.20;1.48;;;5.90;99.90;;;;;;5052150;28;20045;-76
2021/12/07 10:49:59;;;;;;;1.55;1.35;;;5.80;99.90;;;;;;5058941;28;20106;-75
2021/12/07 10:52:33;;;;;;;3.33;1.52;;;5.50;99.90;;;;;;5071250;28;20046;-75
2021/12/07 10:55:19;;;;;;;4.68;1.23;;;5.40;99.90;;;;;;5065481;28;20435;-75
2021/12/07 10:58:14;;;;;;;3.40;1.30;;;5.30;99.90;;;;;;5057150;28;20570;-75
2021/12/07 11:00:45;;;;;;;10.77;1.88;;;5.50;99.90;;;;;;5052491;28;20052;-75
2021/12/07 11:03:14;;;;;;;5.78;1.95;;;5.70;99.90;;;;;;5035315;28;20233;-75
2021/12/07 11:05:50;;;;;;;7.53;2.17;;;5.90;99.90;;;;;;5036558;28;20137;-75
2021/12/07 11:08:18;;;;;;;2.88;1.88;;;6.00;99.90;;;;;;5053748;28;20032;-75
2021/12/07 11:10:48;;;;;;;5.45;0.88;;;6.10;99.90;;;;;;5063829;28;20498;-75
2021/12/07 11:13:21;;;;;;;1.27;1.20;;;6.20;99.90;;;;;;5043914;28;20045;-75
2021/12/07 11:15:52;;;;;;;;;;;6.30;99.90;;;;;;5054953;28;20052;-76
2021/12/07 11:18:24;;;;;;;3.35;1.38;;;6.30;99.90;;;;;;5070920;28;19920;-75
2021/12/07 11:20:52;;;;;;;4.68;2.25;;;6.30;99.90;;;;;;5061443;28;20037;-75
2021/12/07 11:23:23;;;;;;;1.42;1.25;;;6.40;99.90;;;;;;5059976;28;20056;-75
2021/12/07 11:31:45;;;;;;;7.67;1.40;;;6.50;99.90;;;;;;5069602;28;20131;-75
2021/12/07 11:34:13;;;;;;;1.30;0.95;;;6.60;99.90;;;;;;5053833;28;20374;-75
2021/12/07 11:36:43;;;;;;;3.13;1.90;;;6.60;99.90;;;;;;5053207;28;20072;-75
2021/12/07 11:39:26;;;;;;;10.10;2.35;;;6.60;99.90;;;;;;5045693;28;20048;-75
2021/12/07 11:41:58;;;;;;;3.20;1.25;;;6.60;99.90;;;;;;5051234;28;20133;-75
2021/12/07 11:44:24;;;;;;;0.30;0.30;;;6.60;99.90;;;;;;5053594;28;20055;-75
2021/12/07 11:46:51;;;;;;;1.00;1.00;;;6.60;99.90;;;;;;5067985;28;20477;-75
2021/12/07 11:49:21;;;;;;;2.67;0.82;;;6.60;99.90;;;;;;5069924;28;20058;-75
2021/12/07 11:51:50;;;;;;;8.63;1.92;;;6.60;99.90;;;;;;5043340;28;20060;-75
2021/12/07 11:54:17;;;;;;;0.77;0.68;;;6.60;99.90;;;;;;5060771;28;20390;-75
2021/12/07 11:56:45;;;;;;;2.85;1.63;;;6.50;99.90;;;;;;5040973;28;20070;-75
2021/12/07 11:59:12;;;;;;;0.98;0.98;;;6.60;99.90;;;;;;5069480;28;20123;-76
2021/12/07 12:01:39;;;;;;;7.25;1.23;;;6.60;99.90;;;;;;5046619;28;20041;-76
2021/12/07 12:04:05;;;;;;;3.00;1.50;;;6.70;99.90;;;;;;5037915;28;20544;-75
2021/12/07 12:06:31;;;;;;;2.28;1.58;;;6.70;99.90;;;;;;5069284;28;20083;-75
2021/12/07 12:08:58;;;;;;;0.93;0.70;;;6.70;99.90;;;;;;5060173;28;20128;-76
2021/12/07 12:11:37;;;;;;;3.25;1.65;;;6.70;99.90;;;;;;5057023;28;20059;-75
2021/12/07 12:14:27;;;;;;;5.30;1.77;;;6.80;99.90;;;;;;5052876;28;20060;-75
2021/12/07 12:17:32;;;;;;;0.80;0.80;;;6.80;99.90;;;;;;5052823;28;20040;-75
2021/12/07 12:20:12;;;;;;;6.30;1.73;;;6.80;99.90;;;;;;5046063;28;20159;-75
2021/12/07 12:22:54;;;;;;;3.13;1.58;;;6.80;99.90;;;;;;5028596;28;20080;-75
2021/12/07 12:25:23;;;;;;;1.88;1.10;;;6.80;99.90;;;;;;5041731;28;20488;-75
2021/12/07 12:27:51;;;;;;;0.80;0.80;;;6.80;99.90;;;;;;5042213;28;20041;-75
2021/12/07 12:30:40;;;;;;;0.77;0.70;;;6.80;99.90;;;;;;5047726;28;20132;-76
2021/12/07 12:33:10;;;;;;;1.75;1.27;;;6.80;99.90;;;;;;5069645;28;20429;-75
2021/12/07 12:35:40;;;;;;;3.58;1.90;;;6.70;99.90;;;;;;5068756;28;20056;-76
2021/12/07 12:38:21;;;;;;;0.80;0.70;;;6.70;99.90;;;;;;5069679;28;20055;-75
2021/12/07 12:41:00;;;;;;;10.90;2.97;;;6.60;99.90;;;;;;5036294;28;20091;-75
2021/12/07 12:43:51;;;;;;;0.70;0.70;;;6.50;99.90;;;;;;5065058;28;20351;-75
2021/12/07 12:46:40;;;;;;;0.20;0.20;;;6.50;99.90;;;;;;5068770;28;20170;-75
2021/12/07 12:49:11;;;;;;;2.67;0.57;;;6.50;99.90;;;;;;5046625;28;20055;-75
2021/12/07 12:51:45;;;;;;;1.58;1.48;;;6.50;99.90;;;;;;5044078;28;20401;-76
2021/12/07 12:54:12;;;;;;;5.47;2.28;;;6.40;99.90;;;;;;5050464;28;20044;-75
2021/12/07 12:56:39;;;;;;;4.45;1.75;;;6.40;99.90;;;;;;5065436;28;20043;-76
2021/12/07 12:59:08;;;;;;;7.60;2.30;;;6.40;99.90;;;;;;5033453;28;20052;-75
2021/12/07 13:02:00;;;;;;;4.05;1.73;;;6.30;99.90;;;;;;5069042;28;20396;-75
2021/12/07 13:04:28;;;;;;;1.65;1.55;;;6.40;99.90;;;;;;5033536;28;20047;-75
2021/12/07 13:07:05;;;;;;;6.40;1.67;;;6.30;99.90;;;;;;5042329;28;20041;-75
2021/12/07 13:09:39;;;;;;;9.00;2.08;;;6.30;99.90;;;;;;5083304;28;20049;-76
2021/12/07 13:12:10;;;;;;;9.15;2.97;;;6.30;99.90;;;;;;5089289;28;20044;-76
2021/12/07 13:14:56;;;;;;;5.25;2.45;;;6.30;99.90;;;;;;5047846;28;20037;-76
2021/12/07 13:17:43;;;;;;;5.55;1.80;;;6.30;99.90;;;;;;5063980;28;20080;-75
2021/12/07 13:20:21;;;;;;;1.45;1.23;;;6.30;99.90;;;;;;5070810;28;20036;-75
2021/12/07 13:22:55;;;;;;;0.93;0.73;;;6.20;99.90;;;;;;5089994;28;20044;-76
2021/12/07 13:25:27;;;;;;;3.10;1.83;;;6.20;99.90;;;;;;5059371;28;20045;-76
2021/12/07 13:28:21;;;;;;;5.10;1.98;;;6.20;99.90;;;;;;5056384;28;20094;-75
2021/12/07 13:31:09;;;;;;;14.30;2.35;;;6.20;99.90;;;;;;5046634;28;20056;-75
2021/12/07 13:33:41;;;;;;;2.50;1.50;;;6.20;99.90;;;;;;5056259;28;20086;-76
2021/12/07 13:36:30;;;;;;;1.98;1.00;;;6.20;99.90;;;;;;5072288;28;20060;-75
2021/12/07 13:39:16;;;;;;;2.05;1.13;;;6.10;99.90;;;;;;5050169;28;20045;-75
2021/12/07 13:42:16;;;;;;;2.22;1.40;;;6.10;99.90;;;;;;5048006;28;20075;-75
2021/12/07 13:44:45;;;;;;;5.93;1.98;;;6.00;99.90;;;;;;5032087;28;20578;-75
2021/12/07 13:47:16;;;;;;;4.05;1.75;;;5.90;99.90;;;;;;5046816;28;20041;-76
2021/12/07 13:49:52;;;;;;;6.40;2.45;;;5.90;99.90;;;;;;5049830;28;20047;-76
2021/12/07 13:52:23;;;;;;;0.98;0.90;;;5.80;99.90;;;;;;5038901;28;20053;-75
2021/12/07 13:54:55;;;;;;;1.23;0.98;;;5.70;99.90;;;;;;5048737;28;20072;-75
2021/12/07 13:57:24;;;;;;;11.52;1.90;;;5.70;99.90;;;;;;5053738;28;20055;-75
2021/12/07 14:00:01;;;;;;;2.90;1.08;;;5.70;99.90;;;;;;5069685;28;20041;-75
2021/12/07 14:02:27;;;;;;;3.08;1.00;;;5.60;99.90;;;;;;5053755;28;20051;-76
2021/12/07 14:05:06;;;;;;;6.80;2.42;;;5.60;99.90;;;;;;5069800;28;20036;-75
2021/12/07 14:07:34;;;;;;;2.25;1.73;;;5.50;99.90;;;;;;5032951;28;20037;-75
2021/12/07 14:10:25;;;;;;;2.83;2.35;;;5.50;99.90;;;;;;5064740;28;20044;-75
2021/12/07 14:12:53;;;;;;;6.60;1.15;;;5.50;99.90;;;;;;5050161;28;20079;-75
2021/12/07 14:15:24;;;;;;;11.25;1.75;;;5.40;99.90;;;;;;5069682;28;20050;-76
2021/12/07 14:17:53;;;;;;;1.13;1.02;;;5.40;99.90;;;;;;5040823;28;20040;-75
2021/12/07 14:20:29;;;;;;;3.13;1.40;;;5.30;99.90;;;;;;5042107;28;20100;-76
2021/12/07 14:22:55;;;;;;;2.17;1.48;;;5.30;99.90;;;;;;5072257;28;20452;-76
2021/12/07 14:25:20;;;;;;;12.07;2.42;;;5.20;99.90;;;;;;5034814;28;20045;-76
2021/12/07 14:27:47;;;;;;;3.80;1.58;;;5.20;99.90;;;;;;5071546;28;20094;-76
2021/12/07 14:30:14;;;;;;;5.13;2.75;;;5.20;99.90;;;;;;5035373;28;20048;-76
2021/12/07 14:32:45;;;;;;;5.32;1.90;;;5.10;99.90;;;;;;5033699;28;20049;-76
2021/12/07 14:35:11;;;;;;;11.02;1.67;;;5.10;99.90;;;;;;5022881;28;20041;-76
2021/12/07 14:37:38;;;;;;;6.82;2.75;;;5.10;99.90;;;;;;5047912;28;20116;-76
2021/12/07 14:40:06;;;;;;;2.47;2.08;;;5.00;99.90;;;;;;5081297;28;20037;-76
2021/12/07 14:42:34;;;;;;;9.32;2.22;;;4.90;99.90;;;;;;5033831;28;20472;-76
2021/12/07 14:45:00;;;;;;;9.05;2.55;;;4.90;99.90;;;;;;5032683;28;20037;-76
2021/12/07 14:47:27;;;;;;;8.65;3.53;;;4.80;99.90;;;;;;5050025;28;20040;-77
2021/12/07 14:49:55;;;;;;;2.53;2.10;;;4.80;99.90;;;;;;5046591;28;20045;-76
2021/12/07 14:52:33;;;;;;;6.55;3.60;;;4.70;99.90;;;;;;5033770;28;20421;-77
2021/12/07 14:55:01;;;;;;;7.85;3.20;;;4.60;99.90;;;;;;5031711;28;20072;-76
2021/12/07 14:57:27;;;;;;;4.80;2.33;;;4.60;99.90;;;;;;5052218;28;20103;-76